Lisbon, Wisconsin
Current Conditions -  °F | °C
As of 12:45 PM on Monday 20 Oct 2014 (Local Time) from KUES Reporting Station
Broken Clouds Broken Clouds  
Wind Chill: 55°   Ceiling: 3100
Heat Index: 55°   Visibility: 10mi
Dew Point: 45°   Wind: 13mph
Humidity: 67%   Direction: 290°WNW
Pressure: 29.86"   Gusts: NA
Location:  43.1492°N, 88.2347°W
Report Text: KUES 201745Z 29011KT 10SM BKN031 BKN043 13/07 A2986
Loading
Personal Weather Stations






























Interactive Weather Map
Tropical Storm Tracking
New forecast layout! Learn more

10-Day Weather Forecast

Advertisements
Track Severe Weather on mobile